• Join FlightAware (Why Join?)
  • Login
  • US Flag 
06:37AM EST


 

Airport Tracker/Info


-or-


 

Live Flight TrackerFlight Track Log ✈ SWA975 ✈ 13-Apr-2013 ✈ KFLL - KBUF

Flight Track Log - Related Links

Times and Time Zones

All times are in EDT time to prevent confusion due to time zone crossing. See the SWA975 flight status page for this flight to view local times or setup timezone preferences in your user account.

Time Position Orientation Groundspeed Altitude Reporting Facility
EDT Latitude Longitude Course Direction KTS MPH feet Rate Location/Type
08:52PM 26.0750 -80.1297 85° East 178 205 1,200  Level Miami Center
08:53PM 26.0808 -80.0606 85° East 254 292 2,600 2,340 Climbing Miami Center
08:55PM 26.1131 -79.9203 76° East 313 360 7,700 2,820 Climbing Miami Center
08:56PM 26.1606 -79.8428 56° Northeast 293 337 10,500 2,340 Climbing Miami Center
08:57PM 26.2125 -79.7514 58° Northeast 313 360 12,400 2,340 Climbing Miami Center
08:58PM 26.2772 -79.6533 54° Northeast 351 404 15,200 2,400 Climbing Miami Center
08:59PM 26.3436 -79.5692 49° Northeast 382 440 17,200 2,100 Climbing Miami Center
09:00PM 26.4492 -79.5042 29° Northeast 388 447 19,400 2,040 Climbing Miami Center
09:01PM 26.5442 -79.4506 27° Northeast 410 472 21,300 1,980 Climbing Miami Center
09:02PM 26.6600 -79.3858 27° Northeast 417 480 23,400 1,560 Climbing Miami Center
09:03PM 26.7592 -79.3275 28° Northeast 425 489 24,500 1,440 Climbing Miami Center
09:04PM 26.8731 -79.2647 26° Northeast 441 507 26,300 1,800 Climbing Miami Center
09:05PM 26.9828 -79.1922 30° Northeast 446 513 28,100 1,680 Climbing Miami Center
09:06PM 27.1114 -79.1250 25° Northeast 458 527 29,700 1,500 Climbing Miami Center
09:07PM 27.2167 -79.0708 25° Northeast 453 521 31,100 1,200 Climbing Miami Center
09:08PM 27.3403 -79.0475 10° North 442 509 32,100 1,080 Climbing Miami Center
09:09PM 27.4783 -79.0244 North 452 520 33,300 1,140 Climbing Miami Center
09:10PM 27.6039 -79.0056 North 457 526 34,400 900 Climbing Miami Center
09:11PM 27.7317 -78.9844 North 457 526 35,200 840 Climbing Miami Center
09:12PM 27.8425 -78.9678 North 450 518 36,100 720 Climbing Miami Center
09:13PM 27.9661 -78.9489 North 444 511 36,700 420 Climbing Miami Center
09:14PM 28.0917 -78.9278 North 450 518 37,000 120 Climbing Miami Center
09:15PM 28.2150 -78.9064 North 450 518 37,000  Level Miami Center
09:16PM 28.3447 -78.8875 North 455 524 37,000  Level Miami Center
09:17PM 28.4703 -78.8686 North 449 517 37,000  Level Miami Center
09:18PM 28.5978 -78.8497 North 454 522 37,000  Level Miami Center
09:19PM 28.7253 -78.8306 North 454 522 37,000  Level Miami Center
09:20PM 28.8508 -78.8092 North 454 522 37,000  Level Miami Center
09:21PM 28.9764 -78.7900 North 454 522 37,000  Level Miami Center
09:22PM 29.0997 -78.7658 10° North 449 517 37,000  Level Miami Center
09:23PM 29.2253 -78.7467 North 449 517 37,000  Level Miami Center
09:24PM 29.3506 -78.7297 North 444 511 37,000  Level Miami Center
09:25PM 29.4739 -78.7106 North 439 505 37,000  Level Miami Center
09:26PM 29.5992 -78.6911 North 448 516 37,000  Level Miami Center
09:27PM 29.7186 -78.6669 10° North 448 516 37,000  Level Miami Center
09:28PM 29.9428 -78.6311 North 443 510 37,000  Level Jacksonville Center
09:29PM 30.0694 -78.6136 North 442 509 37,000  Level Jacksonville Center
09:30PM 30.1917 -78.5889 10° North 447 514 37,000  Level Jacksonville Center
09:31PM 30.3206 -78.5686 North 447 514 37,000  Level Jacksonville Center
09:32PM 30.4494 -78.5508 North 466 536 37,000  Level Jacksonville Center
09:33PM 30.5739 -78.5306 North 471 542 37,000  Level Jacksonville Center
09:34PM 30.6961 -78.5081 North 451 519 37,000  Level Jacksonville Center
09:35PM 30.8186 -78.4856 North 443 510 37,000  Level Jacksonville Center
09:36PM 30.9411 -78.4628 North 458 527 37,000  Level Jacksonville Center
09:37PM 31.0614 -78.4450 North 456 525 37,000  Level Jacksonville Center
09:38PM 31.1839 -78.4272 North 451 519 37,000  Level Jacksonville Center
09:39PM 31.3086 -78.4067 North 446 513 37,000  Level Jacksonville Center
09:40PM 31.4350 -78.3833 North 446 513 37,000  Level Jacksonville Center
09:41PM 31.5575 -78.3653 North 446 513 37,000  Level Jacksonville Center
09:42PM 31.6842 -78.3444 North 451 519 37,000  Level Jacksonville Center
09:43PM 31.8106 -78.3211 North 451 519 37,000  Level Jacksonville Center
09:44PM 31.9392 -78.3003 North 457 526 37,000  Level Jacksonville Center
09:45PM 32.0678 -78.2767 North 463 533 37,000  Level Jacksonville Center
09:46PM 32.2006 -78.2528 North 463 533 37,000  Level Jacksonville Center
09:47PM 32.3292 -78.2314 North 463 533 37,000  Level Jacksonville Center
09:48PM 32.4578 -78.2075 North 463 533 37,000  Level Jacksonville Center
09:49PM 32.5883 -78.1861 North 463 533 37,000  Level Jacksonville Center
09:50PM 32.7189 -78.1594 10° North 468 539 37,000  Level Jacksonville Center
09:51PM 32.8494 -78.1378 North 468 539 37,000  Level Jacksonville Center
09:52PM 32.9803 -78.1161 North 468 539 37,000  Level Jacksonville Center
09:53PM 33.1128 -78.0942 North 468 539 37,000  Level Jacksonville Center
09:54PM 33.2436 -78.0722 North 468 539 37,000  Level Jacksonville Center
09:55PM 33.3719 -78.0503 North 468 539 37,000  Level Jacksonville Center
09:56PM 33.4167 -78.0419 North 475 547 37,000  Level Washington Center
09:57PM 33.5464 -78.0183 North 480 552 37,000  Level Washington Center
09:58PM 33.6783 -77.9997 North 480 552 37,000  Level Washington Center
09:59PM 33.8200 -78.0089 357° North 469 540 37,000  Level Washington Center
10:00PM 33.9386 -78.0175 357° North 461 531 37,000  Level Washington Center
10:01PM 34.0700 -78.0261 357° North 466 536 37,000  Level Washington Center
10:02PM 34.2011 -78.0350 357° North 466 536 37,000  Level Washington Center
10:03PM 34.3450 -78.0469 356° North 466 536 37,000  Level Washington Center
10:04PM 34.4761 -78.0558 357° North 466 536 37,000  Level Washington Center
10:05PM 34.6053 -78.0647 357° North 466 536 37,000  Level Washington Center
10:06PM 34.7344 -78.0764 356° North 461 531 37,000  Level Washington Center
10:07PM 34.8511 -78.0800 359° North 461 531 37,000  Level Washington Center
10:08PM 34.9783 -78.0864 358° North 461 531 37,000  Level Washington Center
10:09PM 35.1094 -78.0981 356° North 461 531 37,000  Level Washington Center
10:10PM 35.2367 -78.1069 357° North 461 531 37,000  Level Washington Center
10:11PM 35.3700 -78.1189 356° North 461 531 37,000  Level Washington Center
10:12PM 35.4969 -78.1253 358° North 461 531 37,000  Level Washington Center
10:13PM 35.6261 -78.1372 356° North 461 531 37,000  Level Washington Center
10:14PM 35.7594 -78.1467 357° North 461 531 37,000  Level Washington Center
10:15PM 35.8908 -78.1558 357° North 461 531 37,000  Level Washington Center
10:16PM 36.0219 -78.1678 356° North 461 531 37,000  Level Washington Center
10:17PM 36.1511 -78.1772 357° North 461 531 37,000  Level Washington Center
10:18PM 36.2969 -78.1872 357° North 467 537 37,000  Level Washington Center
10:19PM 36.4261 -78.1967 357° North 467 537 37,000  Level Washington Center
10:20PM 36.5553 -78.2061 357° North 467 537 37,000  Level Washington Center
10:21PM 36.6844 -78.2183 356° North 461 531 37,000  Level Washington Center
10:22PM 36.8136 -78.2278 357° North 461 531 37,000  Level Washington Center
10:23PM 36.9428 -78.2372 357° North 461 531 37,000  Level Washington Center
10:24PM 37.0614 -78.2414 358° North 461 531 37,000  Level Washington Center
10:25PM 37.1947 -78.2514 357° North 466 536 37,000  Level Washington Center
10:26PM 37.3406 -78.2642 356° North 471 542 37,000  Level Washington Center
10:27PM 37.4717 -78.2739 357° North 471 542 37,000  Level Washington Center
10:28PM 37.6008 -78.2864 356° North 476 548 37,000  Level Washington Center
10:29PM 37.7319 -78.2936 358° North 476 548 37,000  Level Washington Center
10:30PM 37.8506 -78.3058 355° North 476 548 37,000  Level Washington Center
10:31PM 37.9839 -78.3158 357° North 476 548 37,000  Level Washington Center
10:32PM 38.1214 -78.3261 357° North 469 540 37,000  Level Washington Center
10:33PM 38.2544 -78.3364 357° North 464 534 37,000  Level Washington Center
10:34PM 38.3856 -78.3492 356° North 464 534 37,000  Level Washington Center
10:35PM 38.5189 -78.3594 357° North 469 540 37,000  Level Washington Center
10:36PM 38.6542 -78.3697 357° North 475 547 37,000  Level Washington Center
10:37PM 38.7831 -78.3800 356° North 475 547 37,000  Level Washington Center
10:39PM 39.0728 -78.4042 356° North 480 552 37,000  Level Cleveland Center
10:40PM 39.2064 -78.4161 356° North 480 552 37,000  Level Cleveland Center
10:41PM 39.3381 -78.4253 357° North 480 552 37,000  Level Cleveland Center
10:42PM 39.4653 -78.4375 356° North 473 544 37,000  Level Cleveland Center
10:43PM 39.5989 -78.4494 356° North 473 544 37,000  Level Cleveland Center
10:44PM 39.7283 -78.4561 358° North 473 544 37,000  Level Cleveland Center
10:45PM 39.8536 -78.4656 357° North 466 536 37,000  Level Cleveland Center
10:46PM 39.9853 -78.4778 356° North 461 531 37,000  Level Cleveland Center
10:47PM 40.1167 -78.4872 357° North 467 537 37,000  Level Cleveland Center
10:48PM 40.2442 -78.4994 356° North 462 532 37,000  Level Cleveland Center
10:49PM 40.3694 -78.5092 357° North 462 532 37,000  Level Cleveland Center
10:50PM 40.4967 -78.5189 357° North 462 532 37,000  Level Cleveland Center
10:51PM 40.6283 -78.5314 356° North 462 532 37,000  Level Cleveland Center
10:52PM 40.7556 -78.5411 357° North 462 532 37,000  Level Cleveland Center
10:53PM 40.8725 -78.5511 356° North 462 532 37,000 -840 Level Cleveland Center
10:54PM 40.9978 -78.5611 357° North 462 532 35,400 -1,860 Descending Cleveland Center
10:55PM 41.1189 -78.5711 356° North 451 519 33,300 -2,100 Descending Cleveland Center
10:56PM 41.2422 -78.5811 357° North 446 513 31,300 -2,040 Descending Cleveland Center
10:57PM 41.3569 -78.5942 355° North 425 489 29,300 -2,040 Descending Cleveland Center
10:58PM 41.4633 -78.6019 357° North 403 464 27,300 -1,980 Descending Cleveland Center
10:59PM 41.5700 -78.6097 357° North 388 447 25,400 -1,680 Descending Cleveland Center
11:00PM 41.6744 -78.6206 356° North 383 441 24,000 -1,260 Descending Cleveland Center
11:01PM 41.7725 -78.6286 356° North 369 425 22,900 -1,440 Descending Cleveland Center
11:02PM 41.8664 -78.6397 355° North 347 399 21,200 -1,740 Descending Cleveland Center
11:03PM 41.9603 -78.6481 356° North 337 388 19,500 -1,680 Descending Cleveland Center
11:04PM 42.0500 -78.6536 357° North 332 382 17,900 -1,620 Descending Cleveland Center
11:05PM 42.1400 -78.6650 355° North 326 375 16,300 -1,740 Descending Cleveland Center
11:06PM 42.2317 -78.6678 359° North 321 369 14,500 -1,620 Descending Cleveland Center
11:07PM 42.3153 -78.6767 356° North 309 356 13,100 -1,740 Descending Cleveland Center
11:08PM 42.4008 -78.6825 357° North 303 349 11,100 -1,740 Descending Cleveland Center
11:09PM 42.4819 -78.6772 North 298 343 9,700 -1,380 Descending Cleveland Center
11:10PM 42.5628 -78.6408 18° North 293 337 8,400 -1,200 Descending Cleveland Center
11:11PM 42.6311 -78.6161 15° North 288 331 7,300 -1,200 Descending Cleveland Center
11:12PM 42.7056 -78.5856 17° North 280 322 6,000 -1,440 Descending Cleveland Center
11:13PM 42.7842 -78.5578 15° North 266 306 4,500 -1,020 Descending Cleveland Center
11:14PM 42.8525 -78.5300 17° North 259 298 4,000 -600 Descending Cleveland Center
11:15PM 42.9169 -78.5136 11° North 247 284 3,400 -540 Descending Cleveland Center
11:17PM 43.0500 -78.5667 344° North 172 198 2,300 -360 Descending Buffalo TRACON
11:18PM 43.0167 -78.6167 228° Southwest 138 159 2,300 -180 Level Buffalo TRACON
11:19PM 43.0000 -78.6500 236° Southwest 148 170 2,000 -540 Descending Buffalo TRACON
11:20PM 42.9667 -78.6833 216° Southwest 131 151 1,300 -720 Descending Buffalo TRACON